Time;durP1;ratioP1;P1;durP2;ratioP2;P2;SDS_P1;SDS_P2;PMS_P1;PMS_P2;Temp;Humidity;BMP_temperature;BMP_pressure;BME280_temperature;BME280_humidity;BME280_pressure;Samples;Min_cycle;Max_cycle;Signal;HPM_P1;HPM_P2
2021/01/19 00:04:34;;;;;;;32.33;15.23;;;;;;;6.66;79.24;100504.16;8661101;33;21115;-73
2021/01/19 00:09:37;;;;;;;36.22;17.23;;;;;;;6.66;79.24;100498.84;8660605;33;21733;-73
2021/01/19 00:14:39;;;;;;;26.25;13.35;;;;;;;6.59;79.52;100496.56;8660670;33;20263;-73
2021/01/19 00:19:42;;;;;;;29.52;14.27;;;;;;;6.67;78.95;100491.72;8663322;33;20146;-74
2021/01/19 00:24:45;;;;;;;19.13;10.98;;;;;;;6.61;79.24;100479.63;8664452;33;20281;-73
2021/01/19 00:29:48;;;;;;;17.00;9.15;;;;;;;6.52;79.20;100481.84;8659263;33;20517;-73
2021/01/19 00:34:50;;;;;;;30.45;13.90;;;;;;;6.61;79.42;100470.78;8658923;33;20616;-73
2021/01/19 00:39:53;;;;;;;27.75;13.48;;;;;;;6.69;78.92;100463.28;8658219;33;20160;-74
2021/01/19 00:44:55;;;;;;;26.27;12.15;;;;;;;6.60;79.30;100464.59;8658263;33;20785;-73
2021/01/19 00:49:58;;;;;;;31.75;13.30;;;;;;;6.56;79.80;100443.63;8658147;33;20149;-73
2021/01/19 00:55:03;;;;;;;12.40;6.63;;;;;;;6.49;79.34;100439.53;8658131;33;20243;-73
2021/01/19 01:00:08;;;;;;;20.58;10.50;;;;;;;6.45;79.96;100430.88;8656486;33;20712;-73
2021/01/19 01:05:12;;;;;;;19.90;9.52;;;;;;;6.57;79.35;100422.28;8658396;33;20195;-73
2021/01/19 01:10:17;;;;;;;24.02;11.02;;;;;;;6.52;79.91;100412.84;8658448;33;20279;-73
2021/01/19 01:15:30;;;;;;;22.67;10.10;;;;;;;6.63;79.21;100403.38;8658032;33;20184;-73
2021/01/19 01:20:33;;;;;;;29.08;12.07;;;;;;;6.61;79.24;100405.28;8657552;33;20681;-73
2021/01/19 01:25:36;;;;;;;8.75;5.05;;;;;;;6.44;78.87;100391.97;8657962;33;20180;-73
2021/01/19 01:30:38;;;;;;;18.88;9.65;;;;;;;6.43;79.26;100393.78;8656879;33;20180;-73
2021/01/19 01:35:41;;;;;;;15.63;9.07;;;;;;;6.62;78.70;100372.47;8657970;33;20414;-73
2021/01/19 01:40:44;;;;;;;19.33;8.40;;;;;;;6.34;79.11;100373.00;8657604;33;20204;-73
2021/01/19 01:45:46;;;;;;;24.35;10.63;;;;;;;6.80;78.11;100365.38;8657708;33;20184;-73
2021/01/19 01:50:49;;;;;;;19.02;9.75;;;;;;;6.70;78.37;100356.16;8658287;33;21221;-73
2021/01/19 01:55:54;;;;;;;15.43;8.18;;;;;;;6.87;77.48;100345.53;8662051;33;20704;-73
2021/01/19 02:00:56;;;;;;;41.42;8.48;;;;;;;6.77;77.59;100341.63;8661978;33;20192;-73
2021/01/19 02:05:59;;;;;;;17.73;9.73;;;;;;;6.80;77.58;100336.19;8779064;33;20554;-73
2021/01/19 02:11:17;;;;;;;11.43;6.00;;;;;;;6.80;77.60;100336.19;8778258;33;20284;-73
2021/01/19 02:16:33;;;;;;;9.43;5.10;;;;;;;6.70;77.56;100334.94;8778321;33;20199;-72
2021/01/19 02:21:56;;;;;;;12.63;7.20;;;;;;;6.74;77.51;100307.25;8777435;33;20777;-73
2021/01/19 02:27:24;;;;;;;15.88;7.50;;;;;;;6.90;77.19;100302.84;8777491;33;20682;-72
2021/01/19 02:32:35;;;;;;;17.23;9.30;;;;;;;6.85;77.07;100288.09;8777165;33;20482;-72
2021/01/19 02:37:48;;;;;;;12.00;7.13;;;;;;;6.66;77.82;100290.88;8777228;33;20167;-72
2021/01/19 02:43:00;;;;;;;10.23;6.43;;;;;;;7.00;76.72;100262.56;8776884;33;20934;-73
2021/01/19 02:48:05;;;;;;;15.93;8.27;;;;;;;7.06;77.17;100262.22;8777220;33;20278;-73
2021/01/19 02:53:09;;;;;;;11.57;6.28;;;;;;;6.59;77.22;100266.44;8776387;33;21119;-74
2021/01/19 02:58:41;;;;;;;12.05;7.07;;;;;;;6.72;77.28;100240.13;8775898;33;20874;-74
2021/01/19 03:03:46;;;;;;;14.18;8.20;;;;;;;6.98;77.07;100228.09;8775401;33;20426;-73
2021/01/19 03:08:50;;;;;;;8.65;6.72;;;;;;;6.70;77.01;100230.53;8776492;33;20729;-74
2021/01/19 03:13:53;;;;;;;9.48;5.03;;;;;;;6.77;76.68;100216.81;8776024;33;20616;-74
2021/01/19 03:18:56;;;;;;;11.50;7.05;;;;;;;6.82;76.26;100205.97;8777524;33;20183;-74
2021/01/19 03:23:59;;;;;;;8.73;6.13;;;;;;;6.61;77.01;100197.34;8777054;33;20600;-74
2021/01/19 03:29:01;;;;;;;13.27;7.13;;;;;;;6.54;77.73;100191.50;8777875;33;20664;-73
2021/01/19 03:34:04;;;;;;;16.98;9.20;;;;;;;6.80;76.86;100175.97;8777122;33;21007;-73
2021/01/19 03:39:07;;;;;;;18.52;7.93;;;;;;;6.92;76.06;100161.19;8776996;33;20242;-73
2021/01/19 03:44:09;;;;;;;14.75;8.32;;;;;;;6.82;76.20;100145.72;8775427;33;20697;-74
2021/01/19 03:49:13;;;;;;;11.52;6.60;;;;;;;6.73;76.05;100166.63;8775268;33;20192;-73
2021/01/19 03:54:16;;;;;;;15.52;7.85;;;;;;;6.59;76.24;100133.72;8774954;33;20186;-73
2021/01/19 03:59:18;;;;;;;12.85;5.93;;;;;;;6.63;75.37;100131.75;8775758;33;20194;-73
2021/01/19 04:04:22;;;;;;;9.20;4.05;;;;;;;6.26;75.23;100123.13;8775811;33;20470;-73
2021/01/19 04:09:24;;;;;;;6.43;3.70;;;;;;;6.49;74.85;100094.50;8775012;33;20146;-73
2021/01/19 04:14:26;;;;;;;9.30;5.05;;;;;;;6.84;73.46;100082.78;8774306;33;20592;-74
2021/01/19 04:19:29;;;;;;;8.38;4.32;;;;;;;6.63;73.66;100076.84;8774502;33;20682;-73
2021/01/19 04:24:32;;;;;;;8.20;4.50;;;;;;;6.82;73.05;100062.56;8776716;33;22973;-73
2021/01/19 04:29:34;;;;;;;6.65;4.00;;;;;;;6.64;72.15;100054.69;8774119;33;21612;-73
2021/01/19 04:34:37;;;;;;;3.65;2.65;;;;;;;6.63;71.74;100052.13;8775210;33;20179;-74
2021/01/19 04:39:40;;;;;;;3.85;3.20;;;;;;;6.78;71.41;100035.34;8774464;33;20132;-73
2021/01/19 04:44:42;;;;;;;3.75;2.33;;;;;;;6.60;71.03;100021.28;8774384;33;20678;-73
2021/01/19 04:49:48;;;;;;;2.17;1.98;;;;;;;6.33;71.46;100022.81;8774457;33;20356;-73
2021/01/19 04:55:05;;;;;;;3.75;2.92;;;;;;;6.54;71.17;99978.31;8773362;33;20277;-73
2021/01/19 05:00:11;;;;;;;6.07;2.50;;;;;;;6.43;70.83;99974.47;8774450;33;20182;-73
2021/01/19 05:05:50;;;;;;;4.57;2.88;;;;;;;6.42;70.86;99956.00;8773802;33;21445;-74
2021/01/19 05:10:58;;;;;;;3.60;2.15;;;;;;;6.53;69.79;99956.25;8781473;33;21889;-73
2021/01/19 05:16:03;;;;;;;4.38;2.50;;;;;;;6.67;69.54;99977.53;8780728;33;21849;-74
2021/01/19 05:21:08;;;;;;;4.18;2.58;;;;;;;6.75;69.49;99950.56;8774245;33;20179;-73
2021/01/19 05:26:14;;;;;;;4.93;2.45;;;;;;;6.82;69.74;99927.16;8727985;33;20150;-74
2021/01/19 05:31:28;;;;;;;2.15;1.90;;;;;;;6.44;71.25;99912.50;8778840;33;20179;-74
2021/01/19 05:36:41;;;;;;;2.42;2.22;;;;;;;6.38;71.90;99912.84;8779096;33;20163;-74
2021/01/19 05:41:45;;;;;;;5.00;2.28;;;;;;;6.25;73.05;99895.91;8779487;33;20726;-74
2021/01/19 05:46:52;;;;;;;2.67;2.05;;;;;;;6.05;73.49;99885.56;8777571;33;20185;-73
2021/01/19 05:52:02;;;;;;;3.35;2.22;;;;;;;6.13;73.91;99868.28;8778360;33;20217;-74
2021/01/19 05:57:07;;;;;;;6.25;2.42;;;;;;;6.20;74.03;99864.34;8777815;33;20152;-73
2021/01/19 06:02:13;;;;;;;5.20;1.95;;;;;;;6.11;73.72;99846.28;8777732;33;21761;-73
2021/01/19 06:07:19;;;;;;;3.70;2.30;;;;;;;6.12;74.38;99839.22;8778376;33;20277;-73
2021/01/19 06:12:22;;;;;;;2.92;2.15;;;;;;;5.94;74.75;99827.84;8777760;33;20186;-74
2021/01/19 06:17:24;;;;;;;4.28;2.05;;;;;;;5.88;75.20;99822.84;8778206;33;20699;-74
2021/01/19 06:22:29;;;;;;;3.25;2.05;;;;;;;5.79;76.48;99790.63;8777914;33;20916;-74
2021/01/19 06:27:33;;;;;;;7.25;3.60;;;;;;;5.85;76.65;99783.28;8777517;33;20272;-75
2021/01/19 06:32:38;;;;;;;6.10;1.90;;;;;;;5.61;76.71;99793.44;8777561;33;20455;-75
2021/01/19 06:37:43;;;;;;;2.80;2.50;;;;;;;5.87;77.35;99761.03;8777563;33;20147;-75
2021/01/19 06:42:56;;;;;;;4.97;3.20;;;;;;;5.74;78.31;99752.06;8777693;33;20520;-74
2021/01/19 06:48:03;;;;;;;4.17;2.83;;;;;;;5.57;79.48;99750.38;8777740;33;20505;-76
2021/01/19 06:53:15;;;;;;;5.77;2.80;;;;;;;5.89;78.55;99729.97;8777521;33;20147;-76
2021/01/19 06:58:32;;;;;;;3.67;1.90;;;;;;;5.17;80.21;99744.63;8776721;33;20189;-74
2021/01/19 07:03:38;;;;;;;4.32;2.58;;;;;;;5.60;79.93;99749.34;8777128;33;20569;-75
2021/01/19 07:09:50;;;;;;;4.03;2.38;;;;;;;5.72;79.52;99722.97;8777148;33;20139;-75
2021/01/19 07:15:05;;;;;;;6.13;2.83;;;;;;;5.74;79.89;99689.31;8760343;33;20492;-77
2021/01/19 07:20:20;;;;;;;3.95;2.67;;;;;;;5.70;80.34;99698.34;8776914;33;20143;-75
2021/01/19 07:25:23;;;;;;;4.57;2.90;;;;;;;5.99;79.83;99680.78;8776162;33;20663;-75
2021/01/19 07:30:25;;;;;;;5.03;2.83;;;;;;;5.83;80.09;99673.81;8764765;33;20191;-76
2021/01/19 07:35:30;;;;;;;6.00;2.83;;;;;;;6.11;80.12;99650.03;8776702;33;22328;-75
2021/01/19 07:40:46;;;;;;;5.10;3.47;;;;;;;5.78;81.27;99666.97;8776038;33;20178;-74
2021/01/19 07:45:53;;;;;;;5.03;2.65;;;;;;;6.01;80.45;99652.41;8775985;33;20265;-75
2021/01/19 07:50:56;;;;;;;7.03;3.30;;;;;;;6.05;80.80;99647.75;8750412;33;20239;-75
2021/01/19 07:55:59;;;;;;;3.53;2.67;;;;;;;5.75;81.31;99656.53;8775878;33;21444;-75
2021/01/19 08:01:02;;;;;;;4.83;2.47;;;;;;;5.75;81.54;99634.50;8775996;33;20273;-75
2021/01/19 08:06:09;;;;;;;4.22;2.90;;;;;;;5.67;82.26;99623.47;8776459;33;20270;-75
2021/01/19 08:11:21;;;;;;;5.13;2.63;;;;;;;6.06;81.43;99601.75;8750766;33;20199;-75
2021/01/19 08:16:43;;;;;;;5.65;2.72;;;;;;;6.13;81.27;99592.44;8751363;33;20178;-76
2021/01/19 08:21:50;;;;;;;2.20;1.67;;;;;;;5.86;81.98;99581.69;8777121;33;20399;-76
2021/01/19 08:26:56;;;;;;;3.75;2.40;;;;;;;6.10;81.35;99562.63;8777112;33;20214;-78
2021/01/19 08:32:08;;;;;;;2.60;2.40;;;;;;;6.17;81.36;99570.13;8751027;33;20265;-75
2021/01/19 08:37:18;;;;;;;4.47;2.53;;;;;;;6.24;81.30;99544.06;8830086;33;20230;-75
2021/01/19 08:42:21;;;;;;;2.95;2.47;;;;;;;6.04;82.14;99544.44;8835135;33;20793;-75
2021/01/19 08:47:25;;;;;;;3.45;2.22;;;;;;;6.12;81.60;99537.72;8834452;33;20200;-76
2021/01/19 08:52:47;;;;;;;2.40;2.10;;;;;;;6.08;81.87;99540.66;8834287;33;20231;-76
2021/01/19 08:57:56;;;;;;;3.75;2.35;;;;;;;6.25;81.64;99529.84;8834453;33;20247;-75
2021/01/19 09:03:11;;;;;;;1.65;1.33;;;;;;;5.75;83.09;99525.81;8834216;33;21117;-75
2021/01/19 09:08:18;;;;;;;4.13;2.50;;;;;;;6.03;83.10;99513.56;8774392;33;20896;-74
2021/01/19 09:13:22;;;;;;;3.10;2.03;;;;;;;5.82;83.39;99505.13;8828626;32;20559;-75
2021/01/19 09:18:29;;;;;;;2.63;2.22;;;;;;;6.10;82.92;99477.75;8833621;33;20226;-74
2021/01/19 09:23:33;;;;;;;1.67;1.58;;;;;;;6.09;82.95;99476.03;8833473;33;20228;-73
2021/01/19 09:28:38;;;;;;;2.50;1.95;;;;;;;6.14;82.97;99464.22;8832996;33;20162;-72
2021/01/19 09:33:41;;;;;;;1.75;1.65;;;;;;;5.92;83.83;99451.41;8834045;33;20776;-74
2021/01/19 09:38:47;;;;;;;1.88;1.65;;;;;;;5.95;83.58;99451.28;8832766;33;21433;-74
2021/01/19 09:43:54;;;;;;;1.67;1.58;;;;;;;6.07;83.49;99447.00;8832749;33;20268;-75
2021/01/19 09:49:00;;;;;;;4.95;2.35;;;;;;;6.32;82.76;99426.84;8832372;33;21680;-75
2021/01/19 09:54:02;;;;;;;2.15;1.45;;;;;;;6.10;83.64;99436.19;8833443;33;20714;-75
2021/01/19 09:59:07;;;;;;;1.52;1.42;;;;;;;6.09;83.91;99415.94;8874769;33;20152;-74
2021/01/19 10:04:18;;;;;;;1.98;1.73;;;;;;;6.37;83.31;99409.69;8864749;33;20236;-74
2021/01/19 10:09:21;;;;;;;4.25;2.03;;;;;;;6.38;83.55;99384.00;8836881;33;20222;-75
2021/01/19 10:14:32;;;;;;;1.30;1.20;;;;;;;5.75;84.70;99396.78;8839296;33;20182;-74
2021/01/19 10:19:44;;;;;;;1.45;1.10;;;;;;;5.98;84.11;99405.16;8813695;33;20173;-73
2021/01/19 10:24:48;;;;;;;1.20;1.20;;;;;;;5.88;83.75;99388.94;8812246;33;20289;-74
2021/01/19 10:29:52;;;;;;;1.35;1.25;;;;;;;5.79;83.63;99419.53;8837393;33;20408;-75
2021/01/19 10:34:54;;;;;;;1.17;1.07;;;;;;;5.89;83.84;99403.03;8838070;33;20281;-74
2021/01/19 10:39:58;;;;;;;0.90;0.90;;;;;;;6.15;83.01;99366.94;8837649;33;20190;-75
2021/01/19 10:45:04;;;;;;;1.50;1.40;;;;;;;6.14;83.62;99366.09;8837201;33;20323;-74
2021/01/19 10:50:13;;;;;;;1.10;1.10;;;;;;;5.73;83.83;99364.25;8812703;32;20438;-75
2021/01/19 10:55:15;;;;;;;1.77;1.67;;;;;;;6.05;83.75;99379.94;8868078;32;21509;-75
2021/01/19 11:00:20;;;;;;;1.80;1.70;;;;;;;6.06;83.91;99339.22;8901867;32;20419;-75
2021/01/19 11:05:23;;;;;;;3.00;2.13;;;;;;;5.94;84.21;99327.59;8897792;32;20234;-75
2021/01/19 11:10:27;;;;;;;1.60;1.50;;;;;;;6.15;83.56;99328.00;8896673;32;20173;-75
2021/01/19 11:15:30;;;;;;;1.58;1.40;;;;;;;6.16;83.70;99319.09;8896516;32;20173;-75
2021/01/19 11:20:32;;;;;;;2.03;1.80;;;;;;;6.21;83.58;99314.34;8896508;32;20225;-76
2021/01/19 11:25:35;;;;;;;2.08;1.88;;;;;;;6.01;84.09;99305.06;8897139;32;20485;-75
2021/01/19 11:30:46;;;;;;;2.47;2.28;;;;;;;6.15;84.34;99320.06;8898015;32;20233;-75
2021/01/19 11:35:48;;;;;;;2.83;2.63;;;;;;;6.07;84.77;99297.66;8896452;32;20272;-74
2021/01/19 11:40:50;;;;;;;4.80;2.67;;;;;;;6.27;84.05;99336.97;8895805;32;20638;-75
2021/01/19 11:45:56;;;;;;;2.17;2.03;;;;;;;6.44;84.23;99281.00;8889458;32;20282;-74
2021/01/19 11:51:00;;;;;;;3.53;3.20;;;;;;;6.43;84.38;99275.78;8834646;32;20912;-75
2021/01/19 11:56:03;;;;;;;3.80;3.30;;;;;;;6.51;84.41;99284.06;8834330;33;20192;-74
2021/01/19 12:01:06;;;;;;;3.75;3.33;;;;;;;6.45;84.65;99277.38;8836082;32;20284;-75
2021/01/19 12:06:10;;;;;;;3.10;2.40;;;;;;;6.60;84.58;99277.28;8852891;32;20710;-74
2021/01/19 12:11:12;;;;;;;4.10;3.65;;;;;;;6.69;84.57;99287.25;8833628;33;21576;-74
2021/01/19 12:16:22;;;;;;;1.83;1.67;;;;;;;6.55;85.03;99280.25;8835205;33;20438;-74
2021/01/19 12:21:24;;;;;;;5.38;3.15;;;;;;;6.54;85.45;99275.91;8834270;33;20243;-74
2021/01/19 12:26:27;;;;;;;5.63;3.20;;;;;;;6.51;85.90;99264.66;8835077;33;20504;-75
2021/01/19 12:31:30;;;;;;;3.30;2.45;;;;;;;6.62;85.44;99270.91;8834342;33;20186;-75
2021/01/19 12:36:33;;;;;;;3.00;2.13;;;;;;;6.74;85.62;99249.81;8834060;33;20189;-75
2021/01/19 12:41:36;;;;;;;2.55;2.33;;;;;;;6.67;85.68;99252.88;8831470;33;20718;-75
2021/01/19 12:46:39;;;;;;;3.92;2.95;;;;;;;6.97;85.33;99254.38;8835318;33;20238;-75
2021/01/19 12:51:42;;;;;;;5.22;3.95;;;;;;;7.11;85.40;99240.97;8833890;33;20472;-76
2021/01/19 12:56:44;;;;;;;2.13;1.92;;;;;;;6.92;85.95;99239.72;8833732;33;20241;-75
2021/01/19 13:01:47;;;;;;;4.10;3.30;;;;;;;7.09;86.08;99240.22;8833760;33;20216;-75
2021/01/19 13:06:50;;;;;;;5.60;3.30;;;;;;;7.21;85.59;99241.16;8833599;33;20154;-75
2021/01/19 13:11:52;;;;;;;3.75;2.53;;;;;;;7.08;86.38;99249.16;8809263;33;20189;-75
2021/01/19 13:16:58;;;;;;;5.95;4.35;;;;;;;7.21;86.69;99229.69;8884636;32;20138;-75
2021/01/19 13:22:00;;;;;;;4.15;2.95;;;;;;;7.40;85.94;99232.72;8870793;32;20237;-74
2021/01/19 13:27:03;;;;;;;6.63;4.55;;;;;;;7.52;85.78;99239.81;8895136;32;21906;-74
2021/01/19 13:32:06;;;;;;;4.00;3.10;;;;;;;7.70;85.65;99226.13;8895195;32;20185;-73
2021/01/19 13:37:09;;;;;;;9.02;6.13;;;;;;;7.73;85.91;99241.84;8894406;32;20181;-74
2021/01/19 13:42:12;;;;;;;5.70;3.80;;;;;;;7.61;86.87;99248.91;8894313;32;20162;-74
2021/01/19 13:47:15;;;;;;;9.63;6.25;;;;;;;7.98;86.02;99240.88;8883478;32;20836;-73
2021/01/19 13:52:18;;;;;;;10.50;6.70;;;;;;;7.94;87.20;99244.75;8838506;33;20245;-74
2021/01/19 13:57:20;;;;;;;8.15;5.45;;;;;;;8.19;86.92;99246.44;8838650;33;20850;-74
2021/01/19 14:02:24;;;;;;;5.40;4.28;;;;;;;8.23;86.80;99264.72;8838745;33;20568;-74
2021/01/19 14:07:26;;;;;;;6.85;4.72;;;;;;;8.54;86.72;99253.59;8838402;33;20181;-74
2021/01/19 14:12:29;;;;;;;5.90;4.78;;;;;;;8.44;86.75;99248.97;8838258;32;20474;-73
2021/01/19 14:17:32;;;;;;;4.50;3.38;;;;;;;8.58;87.16;99253.22;8836831;33;21563;-74
2021/01/19 14:22:35;;;;;;;7.15;5.45;;;;;;;8.60;87.27;99247.78;8836853;33;20601;-73
2021/01/19 14:27:38;;;;;;;4.78;3.10;;;;;;;8.42;88.22;99250.91;8837632;33;20829;-72
2021/01/19 14:38:33;;;;;;;4.93;3.72;;;;;;;8.48;88.26;99249.59;8653102;31;20523;-74
2021/01/19 14:43:35;;;;;;;8.05;5.78;;;;;;;8.60;88.07;99263.78;8103368;36;20184;-73
2021/01/19 14:48:37;;;;;;;8.98;5.45;;;;;;;8.59;88.11;99268.25;8103111;36;20180;-73
2021/01/19 14:53:41;;;;;;;10.50;6.93;;;;;;;8.77;87.98;99265.13;8103254;36;20478;-74
2021/01/19 14:58:43;;;;;;;9.65;6.68;;;;;;;9.01;87.22;99260.56;8103930;36;20264;-74
2021/01/19 15:03:45;;;;;;;10.40;6.82;;;;;;;8.83;88.17;99286.84;8105395;36;20256;-74
2021/01/19 15:08:48;;;;;;;9.05;6.75;;;;;;;8.89;87.70;99270.38;8081886;36;20165;-73
2021/01/19 15:19:42;;;;;;;11.30;7.75;;;;;;;9.13;88.13;99283.59;8101902;30;20545;-69
2021/01/19 15:24:46;;;;;;;10.48;5.90;;;;;;;9.03;87.59;99255.97;8005749;36;20163;-69
2021/01/19 15:29:48;;;;;;;12.93;7.05;;;;;;;9.13;87.64;99282.72;7969034;36;20202;-69
2021/01/19 15:34:51;;;;;;;9.20;5.45;;;;;;;9.04;88.34;99302.09;7968973;36;20229;-69
2021/01/19 15:39:54;;;;;;;10.43;6.47;;;;;;;9.26;87.10;99275.47;7969980;36;20258;-70
2021/01/19 15:44:56;;;;;;;5.63;4.57;;;;;;;9.15;88.40;99278.13;7968937;36;20570;-70
2021/01/19 15:49:58;;;;;;;4.80;3.83;;;;;;;9.15;87.82;99290.63;7968866;36;20583;-69
2021/01/19 15:55:02;;;;;;;9.27;5.53;;;;;;;9.20;87.69;99275.97;7948034;36;20221;-69
2021/01/19 16:00:06;;;;;;;6.20;5.25;;;;;;;9.28;88.15;99304.69;7969285;36;20178;-70
2021/01/19 16:05:12;;;;;;;12.70;8.48;;;;;;;9.44;87.28;99289.16;7970268;36;20191;-70
2021/01/19 16:10:22;;;;;;;8.10;4.78;;;;;;;9.28;87.98;99288.69;7968899;36;20135;-70
2021/01/19 16:15:24;;;;;;;8.77;6.13;;;;;;;9.43;87.44;99308.78;7968718;36;21511;-72
2021/01/19 16:20:27;;;;;;;12.20;8.48;;;;;;;9.41;87.63;99293.91;7969284;36;20167;-70
2021/01/19 16:25:30;;;;;;;16.88;9.50;;;;;;;9.32;88.32;99291.00;7968759;36;20775;-71
2021/01/19 16:30:33;;;;;;;6.18;4.03;;;;;;;9.25;88.04;99297.78;7968971;36;20205;-70
2021/01/19 16:35:36;;;;;;;20.27;7.53;;;;;;;9.41;88.03;99312.56;7928442;36;20752;-70
2021/01/19 16:40:39;;;;;;;16.42;9.45;;;;;;;9.60;87.65;99295.91;7968449;36;20540;-70
2021/01/19 16:45:42;;;;;;;16.75;9.23;;;;;;;9.48;88.00;99300.44;7968409;36;20198;-71
2021/01/19 16:50:45;;;;;;;14.85;7.68;;;;;;;9.56;88.01;99327.31;7968473;36;20202;-71
2021/01/19 16:55:50;;;;;;;20.92;11.35;;;;;;;9.57;87.75;99340.56;7968046;36;21508;-70
2021/01/19 17:00:52;;;;;;;21.77;11.50;;;;;;;9.74;87.54;99339.19;7968520;36;20939;-70
2021/01/19 17:05:54;;;;;;;15.50;8.63;;;;;;;9.67;87.54;99345.16;7968534;36;20199;-69
2021/01/19 17:11:02;;;;;;;19.80;10.23;;;;;;;9.50;91.90;99365.16;7888773;36;20459;-69
2021/01/19 17:16:05;;;;;;;23.02;12.35;;;;;;;9.78;91.12;99342.47;7831588;36;20635;-70
2021/01/19 17:21:08;;;;;;;17.40;8.60;;;;;;;9.63;87.52;99343.72;7835968;36;21869;-70
2021/01/19 17:26:11;;;;;;;11.50;6.25;;;;;;;9.30;88.66;99340.06;7839437;36;20213;-71
2021/01/19 17:31:14;;;;;;;23.35;13.32;;;;;;;9.63;88.02;99365.88;7841635;36;20489;-72
2021/01/19 17:36:21;;;;;;;19.60;9.75;;;;;;;9.49;88.10;99376.78;7892137;36;20154;-71
2021/01/19 17:41:32;;;;;;;26.88;12.35;;;;;;;9.38;88.95;99368.75;7873756;36;20161;-70
2021/01/19 17:46:35;;;;;;;28.70;14.75;;;;;;;9.69;87.76;99367.22;7878383;36;20563;-70
2021/01/19 17:51:38;;;;;;;26.85;14.15;;;;;;;9.55;87.67;99377.16;7908715;36;20939;-70
2021/01/19 17:56:42;;;;;;;19.20;10.02;;;;;;;9.63;87.36;99397.88;7874401;36;20550;-72
2021/01/19 18:01:44;;;;;;;20.25;9.15;;;;;;;9.58;87.43;99384.91;7850655;36;20451;-70
2021/01/19 18:06:48;;;;;;;25.13;11.38;;;;;;;9.61;87.49;99393.63;7875452;36;20456;-70
2021/01/19 18:11:53;;;;;;;29.30;13.88;;;;;;;9.76;86.27;99390.63;7836950;36;20502;-70
2021/01/19 18:16:57;;;;;;;31.10;14.05;;;;;;;9.43;87.20;99401.25;7854906;36;20502;-71
2021/01/19 18:22:01;;;;;;;23.55;10.80;;;;;;;9.36;87.51;99414.22;7855201;36;20532;-71
2021/01/19 18:27:05;;;;;;;16.83;8.43;;;;;;;9.34;87.37;99406.31;7877719;36;20185;-71
2021/01/19 18:32:08;;;;;;;19.92;9.27;;;;;;;9.28;87.52;99425.47;7872593;36;20852;-72
2021/01/19 18:37:11;;;;;;;17.05;7.28;;;;;;;9.27;87.24;99434.44;7872123;36;20165;-71
2021/01/19 18:42:15;;;;;;;24.27;11.60;;;;;;;9.12;87.71;99446.25;7865769;36;20563;-70
2021/01/19 18:47:17;;;;;;;13.30;5.97;;;;;;;9.17;87.37;99430.75;7836215;36;21103;-71
2021/01/19 18:52:20;;;;;;;40.00;14.70;;;;;;;9.23;87.02;99432.09;7861842;36;20465;-71
2021/01/19 18:57:23;;;;;;;26.50;11.85;;;;;;;9.33;86.78;99433.97;7832990;36;20227;-71
2021/01/19 19:02:25;;;;;;;21.40;9.25;;;;;;;9.18;87.04;99421.78;7862136;36;20679;-73
2021/01/19 19:07:28;;;;;;;25.70;11.05;;;;;;;9.26;86.96;99440.72;7855319;36;20486;-72
2021/01/19 19:12:31;;;;;;;20.67;10.25;;;;;;;9.03;87.94;99423.81;7853681;36;20473;-72
2021/01/19 19:17:35;;;;;;;25.52;9.82;;;;;;;9.11;87.08;99431.22;7835788;36;20689;-71
2021/01/19 19:22:38;;;;;;;20.30;9.23;;;;;;;9.06;87.10;99436.91;7857050;36;20166;-71
2021/01/19 19:27:46;;;;;;;24.98;11.88;;;;;;;8.95;87.09;99447.53;7859548;36;20215;-70
2021/01/19 19:32:48;;;;;;;22.40;10.50;;;;;;;8.99;87.52;99440.13;7835133;36;21634;-71
2021/01/19 19:37:51;;;;;;;21.30;8.73;;;;;;;8.88;87.85;99435.63;7853133;36;20505;-71
2021/01/19 19:42:55;;;;;;;9.43;6.22;;;;;;;8.75;87.57;99450.81;7853928;36;20634;-72
2021/01/19 19:47:58;;;;;;;19.27;10.55;;;;;;;8.94;87.44;99450.28;7852916;36;21308;-71
2021/01/19 19:53:00;;;;;;;22.17;11.75;;;;;;;8.84;87.39;99460.78;7853342;36;20923;-71
2021/01/19 19:58:04;;;;;;;19.00;8.43;;;;;;;8.83;87.10;99465.28;7853030;36;20558;-71
2021/01/19 20:03:07;;;;;;;16.55;7.95;;;;;;;8.77;87.36;99479.03;7853216;36;20676;-71
2021/01/19 20:08:09;;;;;;;15.80;7.78;;;;;;;8.98;85.85;99451.78;7833125;36;20843;-71
2021/01/19 20:13:13;;;;;;;27.02;11.50;;;;;;;8.97;86.03;99464.25;7852731;36;20456;-71
2021/01/19 20:18:16;;;;;;;19.23;9.30;;;;;;;9.07;85.48;99451.91;7853909;36;20497;-72
2021/01/19 20:23:19;;;;;;;14.00;8.23;;;;;;;8.88;85.27;99471.09;7856804;36;20390;-72
2021/01/19 20:28:22;;;;;;;18.50;9.73;;;;;;;9.07;84.46;99453.72;7856061;36;20382;-72
2021/01/19 20:33:24;;;;;;;16.67;7.28;;;;;;;8.91;85.23;99456.69;7860494;36;20203;-71
2021/01/19 20:38:27;;;;;;;22.55;12.27;;;;;;;9.00;84.48;99479.16;7862980;36;20447;-71
2021/01/19 20:43:30;;;;;;;15.40;7.28;;;;;;;8.78;84.74;99451.44;7871709;36;20879;-71
2021/01/19 20:48:33;;;;;;;18.75;9.85;;;;;;;8.83;84.42;99459.06;7863759;36;20202;-71
2021/01/19 20:53:36;;;;;;;16.20;8.23;;;;;;;8.84;84.92;99452.81;7856235;36;20473;-71
2021/01/19 20:58:39;;;;;;;20.73;9.55;;;;;;;8.66;85.22;99455.00;7855027;36;20906;-70
2021/01/19 21:03:43;;;;;;;16.63;9.60;;;;;;;8.67;84.34;99462.03;7860045;36;20189;-71
2021/01/19 21:08:46;;;;;;;17.70;8.93;;;;;;;8.49;84.56;99448.25;7854687;36;20154;-71
2021/01/19 21:13:51;;;;;;;12.18;6.13;;;;;;;8.38;84.31;99464.13;7856886;36;20464;-72
2021/01/19 21:18:55;;;;;;;18.15;8.82;;;;;;;8.64;83.35;99456.94;7852272;36;20831;-71
2021/01/19 21:23:59;;;;;;;10.85;6.18;;;;;;;8.14;84.00;99480.88;7829777;36;20438;-72
2021/01/19 21:29:02;;;;;;;13.13;7.82;;;;;;;8.20;83.77;99471.63;7812930;36;20158;-71
2021/01/19 21:34:05;;;;;;;11.30;5.90;;;;;;;8.26;83.18;99455.22;7854691;36;20679;-71
2021/01/19 21:39:07;;;;;;;11.07;6.03;;;;;;;8.02;83.77;99461.34;7853762;36;20340;-71
2021/01/19 21:44:11;;;;;;;9.10;6.25;;;;;;;8.05;82.51;99476.22;7813581;36;20498;-71
2021/01/19 21:49:13;;;;;;;7.90;4.88;;;;;;;8.23;81.78;99474.09;7851660;36;20582;-70
2021/01/19 21:54:16;;;;;;;8.63;5.45;;;;;;;8.01;82.70;99458.78;7850310;36;20751;-71
2021/01/19 21:59:20;;;;;;;10.40;6.13;;;;;;;8.15;81.51;99449.84;7848821;36;20455;-71
2021/01/19 22:04:22;;;;;;;11.75;7.05;;;;;;;8.40;80.75;99435.63;7845968;36;20595;-71
2021/01/19 22:09:25;;;;;;;16.98;7.13;;;;;;;8.38;80.33;99434.84;7824457;36;21949;-70
2021/01/19 22:14:28;;;;;;;15.02;8.23;;;;;;;8.30;80.34;99430.09;7848690;36;21029;-71
2021/01/19 22:19:30;;;;;;;13.68;6.75;;;;;;;8.45;79.78;99429.00;7825575;36;20182;-71
2021/01/19 22:24:34;;;;;;;14.82;8.18;;;;;;;8.36;80.27;99442.09;7845383;36;20487;-71
2021/01/19 22:29:37;;;;;;;17.92;10.40;;;;;;;8.05;80.32;99431.00;7844463;36;20240;-70
2021/01/19 22:34:39;;;;;;;15.90;8.88;;;;;;;8.08;80.22;99427.28;7843696;36;20903;-71
2021/01/19 22:39:42;;;;;;;14.57;7.35;;;;;;;8.26;79.90;99414.47;7844014;36;20648;-71
2021/01/19 22:44:46;;;;;;;13.55;5.50;;;;;;;8.00;79.69;99410.03;7843549;36;20467;-70
2021/01/19 22:49:49;;;;;;;12.45;6.90;;;;;;;8.05;79.10;99424.84;7843872;36;20487;-71
2021/01/19 22:54:51;;;;;;;11.07;7.22;;;;;;;7.97;79.54;99434.22;7843330;36;21076;-71
2021/01/19 22:59:54;;;;;;;9.48;5.13;;;;;;;7.65;79.84;99420.56;7844053;36;20459;-71
2021/01/19 23:04:56;;;;;;;15.55;8.48;;;;;;;8.00;79.29;99387.91;7843159;36;20701;-71
2021/01/19 23:09:59;;;;;;;9.45;4.63;;;;;;;8.00;78.29;99406.53;7810412;36;21500;-71
2021/01/19 23:15:04;;;;;;;12.43;7.00;;;;;;;7.89;78.53;99401.16;7827215;36;20457;-71
2021/01/19 23:20:10;;;;;;;10.48;6.95;;;;;;;7.88;78.35;99392.31;7841116;36;20641;-71
2021/01/19 23:25:12;;;;;;;12.10;6.78;;;;;;;8.00;78.16;99383.44;7844054;36;20513;-71
2021/01/19 23:30:19;;;;;;;15.10;7.80;;;;;;;7.64;78.26;99370.97;7832019;36;20642;-70
2021/01/19 23:35:21;;;;;;;11.68;7.38;;;;;;;7.93;77.45;99360.09;7837884;36;20464;-71
2021/01/19 23:40:24;;;;;;;16.05;8.50;;;;;;;8.21;76.72;99359.75;7832609;36;21641;-71
2021/01/19 23:45:27;;;;;;;9.65;5.45;;;;;;;7.80;76.58;99345.00;7823681;36;20535;-71
2021/01/19 23:50:29;;;;;;;14.13;7.85;;;;;;;7.90;76.63;99339.88;7826716;36;20869;-71
2021/01/19 23:55:32;;;;;;;11.00;6.32;;;;;;;7.74;76.13;99337.47;7831729;36;20534;-71
